createdAt,value
2018-07-28T00:02:26.365Z,66.10
2018-07-28T00:04:54.773Z,66.10
2018-07-28T00:07:23.224Z,66.10
2018-07-28T00:09:51.633Z,66.00
2018-07-28T00:12:20.020Z,66.00
2018-07-28T00:14:48.507Z,65.90
2018-07-28T00:17:16.925Z,65.80
2018-07-28T00:19:45.342Z,65.90
2018-07-28T00:22:13.766Z,66.00
2018-07-28T00:24:42.212Z,66.60
2018-07-28T00:27:10.601Z,67.10
2018-07-28T00:29:39.091Z,68.00
2018-07-28T00:32:07.529Z,68.80
2018-07-28T00:34:36.101Z,69.60
2018-07-28T00:37:04.518Z,70.00
2018-07-28T00:39:32.932Z,70.20
2018-07-28T00:42:01.385Z,70.10
2018-07-28T00:44:29.792Z,70.00
2018-07-28T00:46:59.146Z,70.10
2018-07-28T00:49:27.560Z,70.00
2018-07-28T00:51:55.996Z,70.00
2018-07-28T00:54:24.406Z,70.00
2018-07-28T00:56:52.862Z,70.00
2018-07-28T00:59:21.278Z,70.00
2018-07-28T01:01:49.729Z,69.80
2018-07-28T01:04:18.133Z,70.00
2018-07-28T01:06:46.648Z,70.00
2018-07-28T01:11:43.204Z,69.90
2018-07-28T01:16:39.816Z,69.90
2018-07-28T01:19:08.262Z,69.90
2018-07-28T01:21:37.335Z,70.00
2018-07-28T01:26:33.895Z,70.00
2018-07-28T01:29:07.547Z,70.70
2018-07-28T01:31:35.985Z,70.90
2018-07-28T01:34:04.440Z,70.50
2018-07-28T01:36:32.891Z,70.60
2018-07-28T01:39:01.288Z,71.20
2018-07-28T01:41:29.696Z,71.20
2018-07-28T01:46:26.229Z,71.40
2018-07-28T01:48:54.612Z,71.90
2018-07-28T01:51:23.069Z,72.40
2018-07-28T01:53:51.481Z,72.50
2018-07-28T01:56:19.886Z,73.30
2018-07-28T01:58:48.317Z,73.90
2018-07-28T02:01:16.728Z,73.90
2018-07-28T02:06:13.275Z,74.10
2018-07-28T02:08:41.689Z,73.80
2018-07-28T02:11:10.130Z,74.10
2018-07-28T02:13:38.580Z,74.70
2018-07-28T02:16:07.184Z,74.00
2018-07-28T02:18:35.708Z,73.50
2018-07-28T02:21:04.176Z,72.70
2018-07-28T02:26:00.704Z,72.50
2018-07-28T02:28:29.140Z,72.80
2018-07-28T02:30:57.655Z,73.20
2018-07-28T02:33:26.127Z,73.30
2018-07-28T02:35:54.544Z,73.60
2018-07-28T02:40:51.092Z,74.70
2018-07-28T02:43:19.531Z,74.40
2018-07-28T02:45:47.957Z,74.40
2018-07-28T02:48:16.383Z,74.20
2018-07-28T02:50:44.779Z,73.90
2018-07-28T02:53:13.217Z,74.00
2018-07-28T02:55:41.692Z,73.60
2018-07-28T02:58:10.099Z,73.80
2018-07-28T03:00:38.493Z,74.30
2018-07-28T03:03:06.996Z,74.50
2018-07-28T03:05:35.411Z,74.30
2018-07-28T03:08:03.913Z,74.30
2018-07-28T03:10:32.324Z,74.70
2018-07-28T03:13:00.750Z,74.70
2018-07-28T03:18:00.022Z,74.20
2018-07-28T03:20:28.668Z,74.30
2018-07-28T03:22:57.129Z,74.40
2018-07-28T03:25:25.767Z,74.30
2018-07-28T03:27:54.380Z,74.60
2018-07-28T03:30:22.828Z,74.80
2018-07-28T03:32:51.364Z,75.10
2018-07-28T03:35:19.827Z,75.00
2018-07-28T03:37:48.237Z,75.00
2018-07-28T03:40:16.651Z,75.10
2018-07-28T03:42:45.061Z,75.20
2018-07-28T03:45:13.497Z,75.40
2018-07-28T03:47:42.280Z,75.70
2018-07-28T03:50:11.100Z,75.00
2018-07-28T03:55:08.700Z,77.20
2018-07-28T03:57:37.111Z,77.00
2018-07-28T04:00:08.361Z,77.00
2018-07-28T04:02:36.774Z,76.50
2018-07-28T04:05:06.717Z,76.00
2018-07-28T04:07:35.118Z,76.10
2018-07-28T04:10:03.623Z,75.70
2018-07-28T04:12:32.036Z,75.90
2018-07-28T04:15:00.464Z,75.60
2018-07-28T04:17:28.880Z,75.30
2018-07-28T04:19:57.300Z,75.00
2018-07-28T04:22:25.704Z,73.70
2018-07-28T04:24:54.110Z,73.90
2018-07-28T04:27:22.516Z,73.70
2018-07-28T04:29:50.945Z,74.30
2018-07-28T04:34:47.524Z,74.70
2018-07-28T04:37:15.926Z,74.60
2018-07-28T04:39:44.359Z,73.70
2018-07-28T04:44:40.929Z,72.50
2018-07-28T04:49:37.481Z,72.30
2018-07-28T04:52:05.899Z,72.30
2018-07-28T04:54:34.335Z,71.40
2018-07-28T04:59:30.863Z,69.60
2018-07-28T05:01:59.312Z,68.90
2018-07-28T05:04:27.741Z,68.50
2018-07-28T05:06:56.180Z,66.60
2018-07-28T05:09:24.584Z,66.20
2018-07-28T05:11:53.046Z,65.10
2018-07-28T05:14:21.468Z,63.80
2018-07-28T05:16:49.880Z,63.90
2018-07-28T05:19:18.305Z,63.00
2018-07-28T05:21:46.767Z,63.60
2018-07-28T05:24:15.179Z,63.70
2018-07-28T05:26:43.607Z,63.70
2018-07-28T05:29:12.016Z,63.60
2018-07-28T05:31:40.505Z,63.70
2018-07-28T05:34:08.961Z,63.60
2018-07-28T05:36:37.368Z,64.60
2018-07-28T05:39:08.963Z,63.60
2018-07-28T05:44:05.721Z,64.60
2018-07-28T05:46:34.147Z,65.00
2018-07-28T05:49:02.559Z,67.00
2018-07-28T05:51:31.085Z,67.00
2018-07-28T05:53:59.479Z,66.60
2018-07-28T05:56:27.920Z,65.50
2018-07-28T05:58:56.304Z,65.30
2018-07-28T06:01:24.744Z,66.80
2018-07-28T06:03:53.128Z,66.50
2018-07-28T06:06:21.592Z,67.30
2018-07-28T06:08:49.991Z,66.00
2018-07-28T06:11:18.434Z,65.50
2018-07-28T06:13:47.021Z,65.60
2018-07-28T06:16:15.481Z,65.80
2018-07-28T06:18:43.901Z,65.20
2018-07-28T06:21:12.308Z,65.00
2018-07-28T06:23:40.756Z,64.70
2018-07-28T06:26:09.329Z,64.80
2018-07-28T06:28:37.829Z,64.00
2018-07-28T06:31:06.301Z,62.60
2018-07-28T06:33:34.773Z,61.90
2018-07-28T06:36:03.225Z,62.70
2018-07-28T06:38:31.642Z,61.50
2018-07-28T06:41:00.037Z,61.10
2018-07-28T06:43:28.453Z,61.60
2018-07-28T06:45:56.860Z,62.30
2018-07-28T06:48:25.278Z,61.50
2018-07-28T06:50:53.749Z,61.80
2018-07-28T06:55:50.264Z,61.40
2018-07-28T06:58:19.073Z,60.30
2018-07-28T07:00:47.537Z,60.70
2018-07-28T07:03:15.984Z,61.80
2018-07-28T07:05:45.939Z,62.10
2018-07-28T07:08:14.448Z,63.10
2018-07-28T07:10:42.841Z,62.60
2018-07-28T07:13:11.244Z,62.20
2018-07-28T07:15:39.640Z,62.10
2018-07-28T07:18:09.073Z,62.20
2018-07-28T07:20:37.464Z,61.70
2018-07-28T07:23:05.920Z,62.40
2018-07-28T07:25:34.389Z,62.50
2018-07-28T07:28:02.832Z,61.90
2018-07-28T07:30:31.304Z,61.10
2018-07-28T07:32:59.677Z,61.20
2018-07-28T07:35:28.096Z,60.60
2018-07-28T07:40:24.652Z,60.30
2018-07-28T07:45:21.247Z,60.40
2018-07-28T07:47:49.657Z,60.40
2018-07-28T07:50:18.083Z,60.60
2018-07-28T07:52:46.521Z,60.40
2018-07-28T07:55:14.931Z,60.50
2018-07-28T08:00:11.773Z,60.50
2018-07-28T08:02:40.217Z,61.00
2018-07-28T08:05:08.661Z,60.30
2018-07-28T08:07:37.068Z,60.00
2018-07-28T08:10:06.062Z,60.70
2018-07-28T08:12:34.500Z,60.10
2018-07-28T08:15:02.994Z,60.40
2018-07-28T08:17:31.388Z,61.00
2018-07-28T08:19:59.789Z,60.90
2018-07-28T08:22:28.337Z,62.00
2018-07-28T08:24:56.753Z,64.20
2018-07-28T08:27:25.276Z,63.20
2018-07-28T08:29:53.741Z,69.50
2018-07-28T08:32:22.164Z,72.00
2018-07-28T08:34:50.584Z,71.90
2018-07-28T08:37:18.984Z,71.40
2018-07-28T08:39:47.421Z,68.80
2018-07-28T08:42:15.918Z,68.50
2018-07-28T08:44:44.345Z,65.90
2018-07-28T08:47:12.953Z,67.50
2018-07-28T08:49:41.463Z,68.00
2018-07-28T08:52:09.808Z,66.20
2018-07-28T08:57:06.424Z,69.10
2018-07-28T08:59:34.922Z,70.10
2018-07-28T09:02:03.352Z,70.80
2018-07-28T09:04:31.790Z,66.70
2018-07-28T09:07:00.229Z,66.80
2018-07-28T09:09:28.656Z,66.40
2018-07-28T09:14:31.711Z,65.50
2018-07-28T09:17:00.119Z,64.50
2018-07-28T09:19:28.532Z,63.40
2018-07-28T09:24:25.048Z,62.50
2018-07-28T09:26:53.507Z,61.60
2018-07-28T09:29:21.900Z,61.10
2018-07-28T09:31:50.336Z,60.20
2018-07-28T09:34:18.739Z,60.80
2018-07-28T09:36:47.182Z,60.50
2018-07-28T09:39:15.592Z,60.60
2018-07-28T09:41:44.034Z,60.70
2018-07-28T09:44:12.425Z,61.80
2018-07-28T09:49:09.007Z,60.90
2018-07-28T09:51:37.447Z,60.30
2018-07-28T09:54:05.840Z,61.10
2018-07-28T09:59:02.360Z,61.80
2018-07-28T10:01:30.824Z,60.50
2018-07-28T10:03:59.220Z,60.90
2018-07-28T10:06:27.666Z,61.70
2018-07-28T10:08:56.076Z,62.10
2018-07-28T10:11:24.500Z,62.90
2018-07-28T10:13:52.876Z,61.70
2018-07-28T10:16:21.373Z,61.00
2018-07-28T10:18:49.733Z,60.00
2018-07-28T10:23:46.290Z,59.60
2018-07-28T10:28:42.813Z,58.70
2018-07-28T10:31:11.239Z,58.60
2018-07-28T10:33:39.663Z,57.00
2018-07-28T10:38:36.572Z,56.10
2018-07-28T10:41:05.085Z,55.20
2018-07-28T10:43:33.547Z,55.90
2018-07-28T10:46:01.969Z,54.60
2018-07-28T10:48:30.397Z,54.70
2018-07-28T10:50:58.815Z,55.10
2018-07-28T10:53:27.240Z,54.90
2018-07-28T10:55:55.657Z,53.70
2018-07-28T10:58:24.065Z,53.80
2018-07-28T11:00:52.520Z,53.10
2018-07-28T11:03:20.973Z,53.30
2018-07-28T11:08:17.491Z,53.80
2018-07-28T11:10:45.914Z,53.20
2018-07-28T11:13:14.337Z,54.40
2018-07-28T11:15:42.850Z,53.30
2018-07-28T11:18:11.297Z,52.50
2018-07-28T11:20:39.702Z,50.60
2018-07-28T11:23:08.109Z,50.70
2018-07-28T11:25:36.492Z,50.20
2018-07-28T11:30:33.010Z,49.90
2018-07-28T11:33:12.707Z,48.90
2018-07-28T11:35:52.431Z,46.90
2018-07-28T11:41:06.687Z,44.90
2018-07-28T11:46:08.813Z,46.00
2018-07-28T11:48:37.696Z,44.70
2018-07-28T11:51:06.417Z,44.10
2018-07-28T11:53:34.847Z,44.30
2018-07-28T11:56:03.710Z,44.30
2018-07-28T12:01:00.380Z,44.50
2018-07-28T12:05:56.880Z,44.10
2018-07-28T12:08:25.285Z,44.40
2018-07-28T12:10:53.697Z,45.30
2018-07-28T12:13:22.108Z,44.80
2018-07-28T12:15:50.512Z,44.50
2018-07-28T12:20:47.250Z,44.20
2018-07-28T12:23:15.680Z,43.10
2018-07-28T12:25:44.064Z,42.20
2018-07-28T12:28:12.485Z,42.50
2018-07-28T12:30:40.908Z,42.20
2018-07-28T12:33:09.300Z,42.00
2018-07-28T12:35:37.717Z,42.20
2018-07-28T12:38:06.156Z,41.70
2018-07-28T12:40:34.617Z,44.90
2018-07-28T12:43:03.073Z,45.00
2018-07-28T12:45:31.499Z,43.80
2018-07-28T12:47:59.955Z,47.70
2018-07-28T12:50:28.385Z,56.20
2018-07-28T12:52:56.801Z,69.30
2018-07-28T12:55:25.334Z,80.20
2018-07-28T12:57:53.714Z,79.10
2018-07-28T13:00:22.124Z,79.00
2018-07-28T13:02:50.594Z,77.20
2018-07-28T13:05:19.049Z,90.60
2018-07-28T13:07:47.488Z,90.10
2018-07-28T13:10:15.915Z,91.80
2018-07-28T13:15:12.456Z,94.80
2018-07-28T13:17:40.849Z,95.70
2018-07-28T13:22:37.449Z,97.30
2018-07-28T13:25:05.864Z,95.30
2018-07-28T13:27:34.268Z,93.50
2018-07-28T13:30:02.720Z,93.20
2018-07-28T13:32:31.219Z,90.70
2018-07-28T13:34:59.641Z,87.90
2018-07-28T13:37:28.132Z,91.10
2018-07-28T13:39:56.566Z,85.60
2018-07-28T13:42:24.953Z,83.10
2018-07-28T13:44:53.399Z,89.60
2018-07-28T13:47:21.816Z,87.80
2018-07-28T13:49:50.272Z,87.40
2018-07-28T13:52:18.701Z,82.60
2018-07-28T13:54:47.141Z,79.40
2018-07-28T13:57:15.593Z,74.50
2018-07-28T13:59:44.019Z,72.90
2018-07-28T14:04:40.583Z,77.30
2018-07-28T14:07:09.037Z,75.10
2018-07-28T14:09:37.456Z,76.50
2018-07-28T14:12:05.932Z,75.50
2018-07-28T14:14:34.444Z,73.10
2018-07-28T14:17:02.869Z,73.60
2018-07-28T14:19:31.245Z,74.80
2018-07-28T14:21:59.692Z,73.60
2018-07-28T14:24:28.688Z,76.40
2018-07-28T14:26:57.151Z,73.80
2018-07-28T14:29:25.556Z,76.40
2018-07-28T14:31:54.003Z,73.10
2018-07-28T14:34:22.463Z,75.30
2018-07-28T14:36:51.107Z,72.90
2018-07-28T14:39:19.596Z,72.90
2018-07-28T14:41:48.104Z,70.30
2018-07-28T14:46:44.682Z,70.60
2018-07-28T14:49:13.110Z,69.30
2018-07-28T14:51:41.567Z,69.10
2018-07-28T14:54:09.983Z,66.90
2018-07-28T14:56:38.398Z,67.10
2018-07-28T14:59:07.224Z,65.80
2018-07-28T15:01:35.668Z,65.40
2018-07-28T15:04:04.072Z,64.60
2018-07-28T15:06:32.520Z,64.30
2018-07-28T15:09:00.993Z,64.70
2018-07-28T15:11:29.405Z,63.40
2018-07-28T15:13:57.836Z,63.00
2018-07-28T15:16:26.255Z,61.10
2018-07-28T15:18:54.665Z,61.40
2018-07-28T15:21:23.099Z,64.00
2018-07-28T15:23:51.509Z,65.80
2018-07-28T15:26:19.933Z,66.00
2018-07-28T15:28:51.229Z,66.90
2018-07-28T15:31:21.061Z,67.30
2018-07-28T15:33:49.470Z,66.90
2018-07-28T15:36:17.922Z,68.30
2018-07-28T15:38:46.313Z,67.50
2018-07-28T15:41:14.711Z,67.00
2018-07-28T15:43:43.121Z,66.70
2018-07-28T15:46:11.615Z,66.70
2018-07-28T15:48:40.033Z,66.80
2018-07-28T15:51:08.424Z,66.70
2018-07-28T15:53:36.892Z,66.40
2018-07-28T15:56:05.673Z,65.40
2018-07-28T15:58:34.081Z,65.80
2018-07-28T16:01:02.493Z,66.70
2018-07-28T16:03:30.905Z,66.00
2018-07-28T16:05:59.340Z,65.70
2018-07-28T16:08:27.740Z,66.40
2018-07-28T16:10:56.245Z,65.80
2018-07-28T16:13:24.675Z,66.40
2018-07-28T16:15:53.060Z,66.30
2018-07-28T16:18:21.472Z,66.80
2018-07-28T16:20:49.907Z,67.10
2018-07-28T16:23:18.302Z,67.60
2018-07-28T16:25:46.715Z,67.60
2018-07-28T16:28:15.137Z,68.00
2018-07-28T16:30:43.524Z,68.10
2018-07-28T16:33:11.925Z,68.10
2018-07-28T16:35:40.308Z,68.40
2018-07-28T16:40:37.445Z,68.60
2018-07-28T16:43:06.199Z,69.10
2018-07-28T16:45:34.608Z,68.90
2018-07-28T16:48:03.182Z,68.70
2018-07-28T16:50:31.586Z,68.40
2018-07-28T16:52:59.980Z,68.50
2018-07-28T16:55:28.398Z,68.40
2018-07-28T16:57:56.839Z,68.20
2018-07-28T17:00:25.302Z,68.20
2018-07-28T17:02:53.744Z,68.50
2018-07-28T17:05:22.124Z,69.00
2018-07-28T17:07:50.605Z,68.50
2018-07-28T17:10:19.016Z,67.90
2018-07-28T17:12:47.417Z,68.80
2018-07-28T17:15:15.832Z,67.60
2018-07-28T17:17:44.241Z,66.90
2018-07-28T17:22:40.894Z,66.10
2018-07-28T17:25:09.227Z,66.30
2018-07-28T17:27:37.678Z,66.30
2018-07-28T17:30:06.125Z,66.40
2018-07-28T17:32:34.799Z,66.90
2018-07-28T17:35:03.256Z,65.70
2018-07-28T17:39:59.777Z,66.50
2018-07-28T17:42:28.203Z,66.30
2018-07-28T17:44:56.628Z,66.50
2018-07-28T17:47:25.028Z,65.20
2018-07-28T17:49:53.447Z,66.20
2018-07-28T17:52:21.855Z,66.00
2018-07-28T17:54:50.484Z,65.70
2018-07-28T17:57:18.945Z,65.70
2018-07-28T17:59:47.306Z,65.90
2018-07-28T18:02:15.729Z,65.70
2018-07-28T18:07:12.275Z,65.80
2018-07-28T18:12:08.848Z,65.30
2018-07-28T18:14:37.254Z,65.10
2018-07-28T18:17:05.774Z,65.40
2018-07-28T18:19:34.233Z,65.30
2018-07-28T18:22:02.620Z,65.90
2018-07-28T18:24:31.078Z,65.60
2018-07-28T18:26:59.464Z,66.20
2018-07-28T18:29:27.888Z,65.80
2018-07-28T18:31:56.272Z,66.30
2018-07-28T18:36:52.819Z,66.30
2018-07-28T18:41:49.445Z,66.70
2018-07-28T18:44:17.834Z,66.00
2018-07-28T18:46:46.244Z,66.50
2018-07-28T18:49:14.725Z,66.50
2018-07-28T18:54:11.333Z,66.50
2018-07-28T18:56:39.890Z,66.40
2018-07-28T18:59:08.383Z,66.80
2018-07-28T19:01:36.837Z,66.50
2018-07-28T19:04:05.249Z,66.70
2018-07-28T19:06:33.653Z,67.00
2018-07-28T19:11:35.613Z,66.90
2018-07-28T19:14:09.481Z,66.70
2018-07-28T19:19:11.265Z,67.20
2018-07-28T19:24:07.769Z,67.50
2018-07-28T19:26:36.227Z,67.60
2018-07-28T19:29:10.136Z,68.40
2018-07-28T19:31:38.565Z,68.00
2018-07-28T19:34:06.960Z,67.80
2018-07-28T19:39:09.869Z,68.80
2018-07-28T19:42:42.363Z,69.40
2018-07-28T19:45:10.725Z,69.40
2018-07-28T19:50:07.354Z,70.70
2018-07-28T19:52:35.765Z,71.50
2018-07-28T19:55:04.189Z,71.40
2018-07-28T19:57:32.862Z,72.70
2018-07-28T20:00:01.343Z,72.80
2018-07-28T20:02:29.795Z,72.80
2018-07-28T20:04:58.196Z,73.50
2018-07-28T20:07:26.677Z,73.10
2018-07-28T20:09:55.099Z,73.80
2018-07-28T20:12:23.507Z,74.40
2018-07-28T20:17:20.085Z,75.00
2018-07-28T20:19:48.759Z,75.60
2018-07-28T20:22:17.120Z,75.20
2018-07-28T20:24:45.621Z,75.70
2018-07-28T20:27:14.128Z,76.30
2018-07-28T20:29:42.605Z,76.10
2018-07-28T20:32:11.179Z,77.50
2018-07-28T20:34:39.570Z,77.60
2018-07-28T20:37:08.041Z,78.60
2018-07-28T20:39:36.505Z,77.70
2018-07-28T20:42:04.922Z,78.50
2018-07-28T20:44:33.348Z,78.70
2018-07-28T20:47:01.940Z,78.70
2018-07-28T20:49:30.360Z,78.80
2018-07-28T20:51:58.824Z,78.70
2018-07-28T20:54:27.332Z,78.70
2018-07-28T20:56:55.869Z,78.80
2018-07-28T20:59:24.483Z,78.80
2018-07-28T21:01:53.016Z,78.90
2018-07-28T21:04:21.772Z,78.70
2018-07-28T21:06:50.234Z,78.60
2018-07-28T21:09:18.781Z,78.80
2018-07-28T21:14:15.360Z,79.80
2018-07-28T21:16:43.789Z,80.20
2018-07-28T21:19:12.256Z,79.90
2018-07-28T21:21:40.789Z,79.50
2018-07-28T21:24:09.640Z,79.20
2018-07-28T21:26:38.151Z,79.30
2018-07-28T21:31:34.849Z,80.00
2018-07-28T21:34:03.551Z,79.90
2018-07-28T21:36:31.948Z,79.90
2018-07-28T21:39:00.492Z,79.50
2018-07-28T21:41:29.180Z,80.10
2018-07-28T21:43:57.611Z,79.80
2018-07-28T21:46:26.000Z,79.90
2018-07-28T21:48:54.500Z,79.60
2018-07-28T21:51:22.891Z,79.50
2018-07-28T21:53:51.309Z,78.20
2018-07-28T21:56:23.751Z,78.00
2018-07-28T21:58:53.072Z,78.10
2018-07-28T22:01:21.500Z,78.10
2018-07-28T22:03:49.912Z,78.10
2018-07-28T22:06:18.411Z,78.70
2018-07-28T22:08:46.843Z,78.10
2018-07-28T22:13:43.421Z,78.00
2018-07-28T22:16:11.871Z,79.30
2018-07-28T22:18:40.322Z,77.90
2018-07-28T22:21:11.023Z,78.00
2018-07-28T22:23:39.508Z,77.80
2018-07-28T22:26:08.065Z,77.80
2018-07-28T22:33:32.884Z,77.90
2018-07-28T22:36:01.408Z,78.40
2018-07-28T22:38:29.859Z,77.50
2018-07-28T22:40:58.288Z,77.80
2018-07-28T22:43:26.735Z,77.80
2018-07-28T22:45:55.176Z,77.80
2018-07-28T22:48:23.569Z,77.70
2018-07-28T22:50:51.981Z,77.10
2018-07-28T22:53:20.380Z,77.20
2018-07-28T22:55:48.832Z,77.70
2018-07-28T22:58:17.240Z,77.70
2018-07-28T23:00:45.679Z,78.20
2018-07-28T23:03:14.118Z,78.50
2018-07-28T23:05:42.557Z,77.70
2018-07-28T23:08:11.036Z,77.60
2018-07-28T23:10:39.446Z,75.90
2018-07-28T23:13:07.871Z,76.70
2018-07-28T23:15:36.320Z,77.30
2018-07-28T23:18:04.741Z,77.60
2018-07-28T23:23:01.290Z,78.00
2018-07-28T23:25:29.719Z,77.50
2018-07-28T23:27:58.147Z,77.50
2018-07-28T23:30:26.605Z,78.80
2018-07-28T23:32:55.005Z,78.70
2018-07-28T23:35:23.450Z,78.70
2018-07-28T23:37:51.864Z,78.30
2018-07-28T23:40:20.335Z,80.00
2018-07-28T23:42:48.803Z,80.50
2018-07-28T23:45:17.229Z,80.20
2018-07-28T23:50:13.817Z,80.00
2018-07-28T23:52:42.481Z,80.00
2018-07-28T23:55:10.981Z,79.50
2018-07-28T23:57:39.396Z,79.50
